sensor_id;sensor_type;location;lat;lon;timestamp;temperature;humidity
20068;DHT22;10194;50.824;7.134;2023-04-08T00:02:11;8.80;99.90
20068;DHT22;10194;50.824;7.134;2023-04-08T00:04:36;8.80;99.90
20068;DHT22;10194;50.824;7.134;2023-04-08T00:07:02;8.70;99.90
20068;DHT22;10194;50.824;7.134;2023-04-08T00:09:28;8.70;99.90
20068;DHT22;10194;50.824;7.134;2023-04-08T00:11:53;8.70;99.90
20068;DHT22;10194;50.824;7.134;2023-04-08T00:14:21;8.70;99.90
20068;DHT22;10194;50.824;7.134;2023-04-08T00:16:46;8.70;99.90
20068;DHT22;10194;50.824;7.134;2023-04-08T00:19:12;8.70;99.90
20068;DHT22;10194;50.824;7.134;2023-04-08T00:21:38;8.70;99.90
20068;DHT22;10194;50.824;7.134;2023-04-08T00:24:05;8.70;99.90
20068;DHT22;10194;50.824;7.134;2023-04-08T00:26:31;8.70;99.90
20068;DHT22;10194;50.824;7.134;2023-04-08T00:28:57;8.70;99.90
20068;DHT22;10194;50.824;7.134;2023-04-08T00:31:23;8.70;99.90
20068;DHT22;10194;50.824;7.134;2023-04-08T00:33:49;8.70;99.90
20068;DHT22;10194;50.824;7.134;2023-04-08T00:36:15;8.70;99.90
20068;DHT22;10194;50.824;7.134;2023-04-08T00:38:40;8.70;99.90
20068;DHT22;10194;50.824;7.134;2023-04-08T00:41:06;8.70;99.90
20068;DHT22;10194;50.824;7.134;2023-04-08T00:43:32;8.70;99.90
20068;DHT22;10194;50.824;7.134;2023-04-08T00:45:58;8.70;99.90
20068;DHT22;10194;50.824;7.134;2023-04-08T00:48:24;8.70;99.90
20068;DHT22;10194;50.824;7.134;2023-04-08T00:50:50;8.70;99.90
20068;DHT22;10194;50.824;7.134;2023-04-08T00:53:17;8.70;99.90
20068;DHT22;10194;50.824;7.134;2023-04-08T00:55:43;8.70;99.90
20068;DHT22;10194;50.824;7.134;2023-04-08T00:58:11;8.70;99.90
20068;DHT22;10194;50.824;7.134;2023-04-08T01:00:41;8.70;99.90
20068;DHT22;10194;50.824;7.134;2023-04-08T01:03:25;8.70;99.90
20068;DHT22;10194;50.824;7.134;2023-04-08T01:08:59;8.70;99.90
20068;DHT22;10194;50.824;7.134;2023-04-08T01:11:26;8.60;99.90
20068;DHT22;10194;50.824;7.134;2023-04-08T01:13:57;8.70;99.90
20068;DHT22;10194;50.824;7.134;2023-04-08T01:16:24;8.70;99.90
20068;DHT22;10194;50.824;7.134;2023-04-08T01:18:52;8.70;99.90
20068;DHT22;10194;50.824;7.134;2023-04-08T01:21:19;8.70;99.90
20068;DHT22;10194;50.824;7.134;2023-04-08T01:26:23;8.70;99.90
20068;DHT22;10194;50.824;7.134;2023-04-08T01:28:52;8.70;99.90
20068;DHT22;10194;50.824;7.134;2023-04-08T01:31:20;8.60;99.90
20068;DHT22;10194;50.824;7.134;2023-04-08T01:33:48;8.60;99.90
20068;DHT22;10194;50.824;7.134;2023-04-08T01:36:15;8.60;99.90
20068;DHT22;10194;50.824;7.134;2023-04-08T01:38:42;8.60;99.90
20068;DHT22;10194;50.824;7.134;2023-04-08T01:41:10;8.60;99.90
20068;DHT22;10194;50.824;7.134;2023-04-08T01:43:38;8.60;99.90
20068;DHT22;10194;50.824;7.134;2023-04-08T01:46:05;8.50;99.90
20068;DHT22;10194;50.824;7.134;2023-04-08T01:48:33;8.50;99.90
20068;DHT22;10194;50.824;7.134;2023-04-08T01:51:00;8.50;99.90
20068;DHT22;10194;50.824;7.134;2023-04-08T01:53:27;8.50;99.90
20068;DHT22;10194;50.824;7.134;2023-04-08T01:56:05;8.50;99.90
20068;DHT22;10194;50.824;7.134;2023-04-08T01:58:40;8.40;99.90
20068;DHT22;10194;50.824;7.134;2023-04-08T02:01:13;8.40;99.90
20068;DHT22;10194;50.824;7.134;2023-04-08T02:03:43;8.40;99.90
20068;DHT22;10194;50.824;7.134;2023-04-08T02:06:10;8.40;99.90
20068;DHT22;10194;50.824;7.134;2023-04-08T02:08:35;8.40;99.90
20068;DHT22;10194;50.824;7.134;2023-04-08T02:11:02;8.40;99.90
20068;DHT22;10194;50.824;7.134;2023-04-08T02:13:29;8.40;99.90
20068;DHT22;10194;50.824;7.134;2023-04-08T02:16:19;8.30;99.90
20068;DHT22;10194;50.824;7.134;2023-04-08T02:18:55;8.30;99.90
20068;DHT22;10194;50.824;7.134;2023-04-08T02:21:32;8.30;99.90
20068;DHT22;10194;50.824;7.134;2023-04-08T02:24:04;8.30;99.90
20068;DHT22;10194;50.824;7.134;2023-04-08T02:26:32;8.30;99.90
20068;DHT22;10194;50.824;7.134;2023-04-08T02:29:02;8.30;99.90
20068;DHT22;10194;50.824;7.134;2023-04-08T02:31:29;8.30;99.90
20068;DHT22;10194;50.824;7.134;2023-04-08T02:33:55;8.20;99.90
20068;DHT22;10194;50.824;7.134;2023-04-08T02:36:22;8.30;99.90
20068;DHT22;10194;50.824;7.134;2023-04-08T02:38:48;8.20;99.90
20068;DHT22;10194;50.824;7.134;2023-04-08T02:41:14;8.20;99.90
20068;DHT22;10194;50.824;7.134;2023-04-08T02:43:41;8.20;99.90
20068;DHT22;10194;50.824;7.134;2023-04-08T02:46:07;8.20;99.90
20068;DHT22;10194;50.824;7.134;2023-04-08T02:48:35;8.20;99.90
20068;DHT22;10194;50.824;7.134;2023-04-08T02:51:01;8.30;99.90
20068;DHT22;10194;50.824;7.134;2023-04-08T02:53:26;8.20;99.90
20068;DHT22;10194;50.824;7.134;2023-04-08T02:55:52;8.20;99.90
20068;DHT22;10194;50.824;7.134;2023-04-08T02:58:18;8.20;99.90
20068;DHT22;10194;50.824;7.134;2023-04-08T03:00:44;8.20;99.90
20068;DHT22;10194;50.824;7.134;2023-04-08T03:03:10;8.30;99.90
20068;DHT22;10194;50.824;7.134;2023-04-08T03:05:36;8.30;99.90
20068;DHT22;10194;50.824;7.134;2023-04-08T03:08:01;8.30;99.90
20068;DHT22;10194;50.824;7.134;2023-04-08T03:10:27;8.30;99.90
20068;DHT22;10194;50.824;7.134;2023-04-08T03:12:53;8.30;99.90
20068;DHT22;10194;50.824;7.134;2023-04-08T03:15:19;8.30;99.90
20068;DHT22;10194;50.824;7.134;2023-04-08T03:17:45;8.30;99.90
20068;DHT22;10194;50.824;7.134;2023-04-08T03:20:11;8.30;99.90
20068;DHT22;10194;50.824;7.134;2023-04-08T03:22:36;8.30;99.90
20068;DHT22;10194;50.824;7.134;2023-04-08T03:25:02;8.30;99.90
20068;DHT22;10194;50.824;7.134;2023-04-08T03:27:28;8.30;99.90
20068;DHT22;10194;50.824;7.134;2023-04-08T03:29:54;8.30;99.90
20068;DHT22;10194;50.824;7.134;2023-04-08T03:32:22;8.30;99.90
20068;DHT22;10194;50.824;7.134;2023-04-08T03:34:48;8.30;99.90
20068;DHT22;10194;50.824;7.134;2023-04-08T03:37:16;8.30;99.90
20068;DHT22;10194;50.824;7.134;2023-04-08T03:39:42;8.30;99.90
20068;DHT22;10194;50.824;7.134;2023-04-08T03:42:08;8.30;99.90
20068;DHT22;10194;50.824;7.134;2023-04-08T03:44:33;8.30;99.90
20068;DHT22;10194;50.824;7.134;2023-04-08T03:46:59;8.30;99.90
20068;DHT22;10194;50.824;7.134;2023-04-08T03:49:25;8.30;99.90
20068;DHT22;10194;50.824;7.134;2023-04-08T03:51:50;8.40;99.90
20068;DHT22;10194;50.824;7.134;2023-04-08T03:54:16;8.40;99.90
20068;DHT22;10194;50.824;7.134;2023-04-08T03:56:42;8.40;99.90
20068;DHT22;10194;50.824;7.134;2023-04-08T03:59:08;8.40;99.90
20068;DHT22;10194;50.824;7.134;2023-04-08T04:01:33;8.40;99.90
20068;DHT22;10194;50.824;7.134;2023-04-08T04:03:59;8.40;99.90
20068;DHT22;10194;50.824;7.134;2023-04-08T04:06:25;8.30;99.90
20068;DHT22;10194;50.824;7.134;2023-04-08T04:08:53;8.30;99.90
20068;DHT22;10194;50.824;7.134;2023-04-08T04:11:19;8.40;99.90
20068;DHT22;10194;50.824;7.134;2023-04-08T04:13:47;8.40;99.90
20068;DHT22;10194;50.824;7.134;2023-04-08T04:16:12;8.40;99.90
20068;DHT22;10194;50.824;7.134;2023-04-08T04:18:38;8.30;99.90
20068;DHT22;10194;50.824;7.134;2023-04-08T04:21:05;8.40;99.90
20068;DHT22;10194;50.824;7.134;2023-04-08T04:23:31;8.40;99.90
20068;DHT22;10194;50.824;7.134;2023-04-08T04:25:57;8.30;99.90
20068;DHT22;10194;50.824;7.134;2023-04-08T04:28:23;8.30;99.90
20068;DHT22;10194;50.824;7.134;2023-04-08T04:30:48;8.40;99.90
20068;DHT22;10194;50.824;7.134;2023-04-08T04:33:14;8.40;99.90
20068;DHT22;10194;50.824;7.134;2023-04-08T04:35:40;8.40;99.90
20068;DHT22;10194;50.824;7.134;2023-04-08T04:38:06;8.40;99.90
20068;DHT22;10194;50.824;7.134;2023-04-08T04:40:37;8.40;99.90
20068;DHT22;10194;50.824;7.134;2023-04-08T04:43:03;8.30;99.90
20068;DHT22;10194;50.824;7.134;2023-04-08T04:45:29;8.30;99.90
20068;DHT22;10194;50.824;7.134;2023-04-08T04:47:55;8.30;99.90
20068;DHT22;10194;50.824;7.134;2023-04-08T04:50:21;8.30;99.90
20068;DHT22;10194;50.824;7.134;2023-04-08T04:52:47;8.30;99.90
20068;DHT22;10194;50.824;7.134;2023-04-08T04:55:13;8.30;99.90
20068;DHT22;10194;50.824;7.134;2023-04-08T04:57:40;8.30;99.90
20068;DHT22;10194;50.824;7.134;2023-04-08T05:00:07;8.30;99.90
20068;DHT22;10194;50.824;7.134;2023-04-08T05:02:33;8.30;99.90
20068;DHT22;10194;50.824;7.134;2023-04-08T05:04:59;8.30;99.90
20068;DHT22;10194;50.824;7.134;2023-04-08T05:07:24;8.30;99.90
20068;DHT22;10194;50.824;7.134;2023-04-08T05:09:50;8.30;99.90
20068;DHT22;10194;50.824;7.134;2023-04-08T05:12:16;8.30;99.90
20068;DHT22;10194;50.824;7.134;2023-04-08T05:14:42;8.30;99.90
20068;DHT22;10194;50.824;7.134;2023-04-08T05:17:08;8.30;99.90
20068;DHT22;10194;50.824;7.134;2023-04-08T05:19:34;8.40;99.90
20068;DHT22;10194;50.824;7.134;2023-04-08T05:22:00;8.40;99.90
20068;DHT22;10194;50.824;7.134;2023-04-08T05:24:25;8.40;99.90
20068;DHT22;10194;50.824;7.134;2023-04-08T05:26:51;8.40;99.90
20068;DHT22;10194;50.824;7.134;2023-04-08T05:29:17;8.40;99.90
20068;DHT22;10194;50.824;7.134;2023-04-08T05:31:44;8.40;99.90
20068;DHT22;10194;50.824;7.134;2023-04-08T05:34:10;8.40;99.90
20068;DHT22;10194;50.824;7.134;2023-04-08T05:36:36;8.40;99.90
20068;DHT22;10194;50.824;7.134;2023-04-08T05:39:02;8.40;99.90
20068;DHT22;10194;50.824;7.134;2023-04-08T05:41:27;8.40;99.90
20068;DHT22;10194;50.824;7.134;2023-04-08T05:43:53;8.40;99.90
20068;DHT22;10194;50.824;7.134;2023-04-08T05:46:19;8.30;99.90
20068;DHT22;10194;50.824;7.134;2023-04-08T05:48:45;8.40;99.90
20068;DHT22;10194;50.824;7.134;2023-04-08T05:51:14;8.40;99.90
20068;DHT22;10194;50.824;7.134;2023-04-08T05:53:43;8.40;99.90
20068;DHT22;10194;50.824;7.134;2023-04-08T05:56:09;8.40;99.90
20068;DHT22;10194;50.824;7.134;2023-04-08T05:58:35;8.40;99.90
20068;DHT22;10194;50.824;7.134;2023-04-08T06:01:01;8.40;99.90
20068;DHT22;10194;50.824;7.134;2023-04-08T06:03:26;8.30;99.90
20068;DHT22;10194;50.824;7.134;2023-04-08T06:05:52;8.30;99.90
20068;DHT22;10194;50.824;7.134;2023-04-08T06:08:18;8.30;99.90
20068;DHT22;10194;50.824;7.134;2023-04-08T06:10:50;8.30;99.90
20068;DHT22;10194;50.824;7.134;2023-04-08T06:13:16;8.30;99.90
20068;DHT22;10194;50.824;7.134;2023-04-08T06:15:42;8.40;99.90
20068;DHT22;10194;50.824;7.134;2023-04-08T06:18:08;8.40;99.90
20068;DHT22;10194;50.824;7.134;2023-04-08T06:20:37;8.40;99.90
20068;DHT22;10194;50.824;7.134;2023-04-08T06:23:02;8.40;99.90
20068;DHT22;10194;50.824;7.134;2023-04-08T06:25:28;8.40;99.90
20068;DHT22;10194;50.824;7.134;2023-04-08T06:27:54;8.40;99.90
20068;DHT22;10194;50.824;7.134;2023-04-08T06:30:19;8.40;99.90
20068;DHT22;10194;50.824;7.134;2023-04-08T06:32:46;8.40;99.90
20068;DHT22;10194;50.824;7.134;2023-04-08T06:35:12;8.40;99.90
20068;DHT22;10194;50.824;7.134;2023-04-08T06:37:38;8.40;99.90
20068;DHT22;10194;50.824;7.134;2023-04-08T06:40:05;8.50;99.90
20068;DHT22;10194;50.824;7.134;2023-04-08T06:42:31;8.50;99.90
20068;DHT22;10194;50.824;7.134;2023-04-08T06:44:57;8.50;99.90
20068;DHT22;10194;50.824;7.134;2023-04-08T06:47:23;8.50;99.90
20068;DHT22;10194;50.824;7.134;2023-04-08T06:49:49;8.50;99.90
20068;DHT22;10194;50.824;7.134;2023-04-08T06:52:15;8.50;99.90
20068;DHT22;10194;50.824;7.134;2023-04-08T06:54:41;8.50;99.90
20068;DHT22;10194;50.824;7.134;2023-04-08T06:57:07;8.60;99.90
20068;DHT22;10194;50.824;7.134;2023-04-08T06:59:33;8.60;99.90
20068;DHT22;10194;50.824;7.134;2023-04-08T07:01:58;8.60;99.90
20068;DHT22;10194;50.824;7.134;2023-04-08T07:04:24;8.60;99.90
20068;DHT22;10194;50.824;7.134;2023-04-08T07:06:51;8.70;99.90
20068;DHT22;10194;50.824;7.134;2023-04-08T07:09:17;8.60;99.90
20068;DHT22;10194;50.824;7.134;2023-04-08T07:11:43;8.60;99.90
20068;DHT22;10194;50.824;7.134;2023-04-08T07:14:09;8.70;99.90
20068;DHT22;10194;50.824;7.134;2023-04-08T07:16:34;8.70;99.90
20068;DHT22;10194;50.824;7.134;2023-04-08T07:19:00;8.70;99.90
20068;DHT22;10194;50.824;7.134;2023-04-08T07:21:26;8.80;99.90
20068;DHT22;10194;50.824;7.134;2023-04-08T07:23:52;8.90;99.90
20068;DHT22;10194;50.824;7.134;2023-04-08T07:26:18;8.90;99.90
20068;DHT22;10194;50.824;7.134;2023-04-08T07:28:44;8.90;99.90
20068;DHT22;10194;50.824;7.134;2023-04-08T07:31:14;9.10;99.90
20068;DHT22;10194;50.824;7.134;2023-04-08T07:33:42;9.20;99.90
20068;DHT22;10194;50.824;7.134;2023-04-08T07:36:09;9.40;99.90
20068;DHT22;10194;50.824;7.134;2023-04-08T07:38:37;9.40;99.90
20068;DHT22;10194;50.824;7.134;2023-04-08T07:41:05;9.40;99.90
20068;DHT22;10194;50.824;7.134;2023-04-08T07:43:31;9.40;99.90
20068;DHT22;10194;50.824;7.134;2023-04-08T07:46:02;9.40;99.90
20068;DHT22;10194;50.824;7.134;2023-04-08T07:48:32;9.40;99.90
20068;DHT22;10194;50.824;7.134;2023-04-08T07:51:05;9.40;99.90
20068;DHT22;10194;50.824;7.134;2023-04-08T07:53:32;9.30;99.90
20068;DHT22;10194;50.824;7.134;2023-04-08T07:55:58;9.30;99.90
20068;DHT22;10194;50.824;7.134;2023-04-08T07:58:24;9.30;99.90
20068;DHT22;10194;50.824;7.134;2023-04-08T08:00:50;9.30;99.90
20068;DHT22;10194;50.824;7.134;2023-04-08T08:03:17;9.30;99.90
20068;DHT22;10194;50.824;7.134;2023-04-08T08:05:42;9.30;99.90
20068;DHT22;10194;50.824;7.134;2023-04-08T08:08:09;9.40;99.90
20068;DHT22;10194;50.824;7.134;2023-04-08T08:10:38;9.40;99.90
20068;DHT22;10194;50.824;7.134;2023-04-08T08:13:05;9.50;99.90
20068;DHT22;10194;50.824;7.134;2023-04-08T08:15:31;9.50;99.90
20068;DHT22;10194;50.824;7.134;2023-04-08T08:17:57;9.50;99.90
20068;DHT22;10194;50.824;7.134;2023-04-08T08:20:23;9.50;99.90
20068;DHT22;10194;50.824;7.134;2023-04-08T08:22:48;9.50;99.90
20068;DHT22;10194;50.824;7.134;2023-04-08T08:25:15;9.40;99.90
20068;DHT22;10194;50.824;7.134;2023-04-08T08:27:42;9.50;99.90
20068;DHT22;10194;50.824;7.134;2023-04-08T08:30:09;9.50;99.90
20068;DHT22;10194;50.824;7.134;2023-04-08T08:32:35;9.50;99.90
20068;DHT22;10194;50.824;7.134;2023-04-08T08:35:02;9.60;99.90
20068;DHT22;10194;50.824;7.134;2023-04-08T08:37:28;9.70;99.90
20068;DHT22;10194;50.824;7.134;2023-04-08T08:39:54;9.80;99.90
20068;DHT22;10194;50.824;7.134;2023-04-08T08:42:21;10.00;99.90
20068;DHT22;10194;50.824;7.134;2023-04-08T08:44:48;10.10;99.90
20068;DHT22;10194;50.824;7.134;2023-04-08T08:47:14;10.20;99.90
20068;DHT22;10194;50.824;7.134;2023-04-08T08:49:41;10.20;99.90
20068;DHT22;10194;50.824;7.134;2023-04-08T08:52:07;10.20;99.90
20068;DHT22;10194;50.824;7.134;2023-04-08T08:54:33;10.20;99.90
20068;DHT22;10194;50.824;7.134;2023-04-08T08:56:59;10.20;99.90
20068;DHT22;10194;50.824;7.134;2023-04-08T08:59:25;10.10;99.90
20068;DHT22;10194;50.824;7.134;2023-04-08T09:01:51;10.40;99.90
20068;DHT22;10194;50.824;7.134;2023-04-08T09:04:19;10.70;99.90
20068;DHT22;10194;50.824;7.134;2023-04-08T09:06:48;10.80;99.90
20068;DHT22;10194;50.824;7.134;2023-04-08T09:09:16;10.90;99.90
20068;DHT22;10194;50.824;7.134;2023-04-08T09:11:44;10.90;99.90
20068;DHT22;10194;50.824;7.134;2023-04-08T09:14:24;10.90;99.90
20068;DHT22;10194;50.824;7.134;2023-04-08T09:16:50;10.80;99.90
20068;DHT22;10194;50.824;7.134;2023-04-08T09:19:17;10.80;99.90
20068;DHT22;10194;50.824;7.134;2023-04-08T09:21:43;10.70;99.90
20068;DHT22;10194;50.824;7.134;2023-04-08T09:24:26;10.60;99.90
20068;DHT22;10194;50.824;7.134;2023-04-08T09:26:53;10.40;99.90
20068;DHT22;10194;50.824;7.134;2023-04-08T09:29:22;10.40;99.90
20068;DHT22;10194;50.824;7.134;2023-04-08T09:31:56;10.40;99.90
20068;DHT22;10194;50.824;7.134;2023-04-08T09:34:24;10.40;99.90
20068;DHT22;10194;50.824;7.134;2023-04-08T09:36:52;10.50;99.90
20068;DHT22;10194;50.824;7.134;2023-04-08T09:39:19;10.50;99.90
20068;DHT22;10194;50.824;7.134;2023-04-08T09:41:48;10.40;99.90
20068;DHT22;10194;50.824;7.134;2023-04-08T09:44:15;10.40;99.90
20068;DHT22;10194;50.824;7.134;2023-04-08T09:49:30;10.60;99.90
20068;DHT22;10194;50.824;7.134;2023-04-08T09:52:12;10.80;99.90
20068;DHT22;10194;50.824;7.134;2023-04-08T09:54:53;11.00;99.90
20068;DHT22;10194;50.824;7.134;2023-04-08T09:57:30;11.00;99.90
20068;DHT22;10194;50.824;7.134;2023-04-08T10:00:23;10.90;99.90
20068;DHT22;10194;50.824;7.134;2023-04-08T10:03:05;11.10;99.90
20068;DHT22;10194;50.824;7.134;2023-04-08T10:05:35;11.00;99.90
20068;DHT22;10194;50.824;7.134;2023-04-08T10:08:03;11.00;99.90
20068;DHT22;10194;50.824;7.134;2023-04-08T10:10:30;11.00;99.90
20068;DHT22;10194;50.824;7.134;2023-04-08T10:12:56;11.10;99.90
20068;DHT22;10194;50.824;7.134;2023-04-08T10:15:27;11.20;99.90
20068;DHT22;10194;50.824;7.134;2023-04-08T10:18:28;11.10;99.90
20068;DHT22;10194;50.824;7.134;2023-04-08T10:20:46;11.00;99.90
20068;DHT22;10194;50.824;7.134;2023-04-08T10:23:15;11.00;99.90
20068;DHT22;10194;50.824;7.134;2023-04-08T10:25:42;11.00;99.90
20068;DHT22;10194;50.824;7.134;2023-04-08T10:30:50;10.90;99.90
20068;DHT22;10194;50.824;7.134;2023-04-08T10:33:21;10.80;99.90
20068;DHT22;10194;50.824;7.134;2023-04-08T10:38:18;10.90;99.90
20068;DHT22;10194;50.824;7.134;2023-04-08T10:40:47;10.80;99.90
20068;DHT22;10194;50.824;7.134;2023-04-08T10:43:14;10.70;99.90
20068;DHT22;10194;50.824;7.134;2023-04-08T10:45:41;10.70;99.90
20068;DHT22;10194;50.824;7.134;2023-04-08T10:48:18;10.90;99.90
20068;DHT22;10194;50.824;7.134;2023-04-08T10:50:52;11.00;99.90
20068;DHT22;10194;50.824;7.134;2023-04-08T10:53:31;11.30;99.90
20068;DHT22;10194;50.824;7.134;2023-04-08T10:58:48;11.40;99.90
20068;DHT22;10194;50.824;7.134;2023-04-08T11:01:20;11.60;99.90
20068;DHT22;10194;50.824;7.134;2023-04-08T11:03:47;11.50;99.90
20068;DHT22;10194;50.824;7.134;2023-04-08T11:06:13;11.40;99.90
20068;DHT22;10194;50.824;7.134;2023-04-08T11:08:39;11.60;99.90
20068;DHT22;10194;50.824;7.134;2023-04-08T11:11:06;11.80;99.90
20068;DHT22;10194;50.824;7.134;2023-04-08T11:13:35;11.90;99.90
20068;DHT22;10194;50.824;7.134;2023-04-08T11:16:03;11.90;99.90
20068;DHT22;10194;50.824;7.134;2023-04-08T11:18:30;12.00;99.90
20068;DHT22;10194;50.824;7.134;2023-04-08T11:20:56;11.70;99.90
20068;DHT22;10194;50.824;7.134;2023-04-08T11:23:25;11.80;99.90
20068;DHT22;10194;50.824;7.134;2023-04-08T11:25:51;11.70;99.90
20068;DHT22;10194;50.824;7.134;2023-04-08T11:28:18;11.70;99.90
20068;DHT22;10194;50.824;7.134;2023-04-08T11:30:44;11.80;99.90
20068;DHT22;10194;50.824;7.134;2023-04-08T11:33:12;11.70;99.90
20068;DHT22;10194;50.824;7.134;2023-04-08T11:35:41;11.60;99.90
20068;DHT22;10194;50.824;7.134;2023-04-08T11:38:09;11.60;99.90
20068;DHT22;10194;50.824;7.134;2023-04-08T11:40:36;11.50;99.90
20068;DHT22;10194;50.824;7.134;2023-04-08T11:43:09;11.40;99.90
20068;DHT22;10194;50.824;7.134;2023-04-08T11:45:40;11.40;99.90
20068;DHT22;10194;50.824;7.134;2023-04-08T11:48:10;11.50;99.90
20068;DHT22;10194;50.824;7.134;2023-04-08T11:50:38;11.50;99.90
20068;DHT22;10194;50.824;7.134;2023-04-08T11:53:18;11.50;99.90
20068;DHT22;10194;50.824;7.134;2023-04-08T11:55:45;11.40;99.90
20068;DHT22;10194;50.824;7.134;2023-04-08T11:58:11;11.40;99.90
20068;DHT22;10194;50.824;7.134;2023-04-08T12:00:37;11.40;99.90
20068;DHT22;10194;50.824;7.134;2023-04-08T12:03:03;11.50;99.90
20068;DHT22;10194;50.824;7.134;2023-04-08T12:05:29;11.50;99.90
20068;DHT22;10194;50.824;7.134;2023-04-08T12:07:55;11.50;99.90
20068;DHT22;10194;50.824;7.134;2023-04-08T12:10:20;11.50;99.90
20068;DHT22;10194;50.824;7.134;2023-04-08T12:12:46;11.50;99.90
20068;DHT22;10194;50.824;7.134;2023-04-08T12:15:12;11.60;99.90
20068;DHT22;10194;50.824;7.134;2023-04-08T12:17:38;11.70;99.90
20068;DHT22;10194;50.824;7.134;2023-04-08T12:20:06;11.60;99.90
20068;DHT22;10194;50.824;7.134;2023-04-08T12:22:32;11.70;99.90
20068;DHT22;10194;50.824;7.134;2023-04-08T12:24:58;11.80;99.90
20068;DHT22;10194;50.824;7.134;2023-04-08T12:27:24;11.90;99.90
20068;DHT22;10194;50.824;7.134;2023-04-08T12:29:50;11.90;99.90
20068;DHT22;10194;50.824;7.134;2023-04-08T12:32:17;11.90;99.90
20068;DHT22;10194;50.824;7.134;2023-04-08T12:34:43;11.80;99.90
20068;DHT22;10194;50.824;7.134;2023-04-08T12:37:09;11.90;99.90
20068;DHT22;10194;50.824;7.134;2023-04-08T12:39:35;12.10;99.90
20068;DHT22;10194;50.824;7.134;2023-04-08T12:42:00;12.30;99.90
20068;DHT22;10194;50.824;7.134;2023-04-08T12:44:26;12.30;99.90
20068;DHT22;10194;50.824;7.134;2023-04-08T12:46:52;12.10;99.90
20068;DHT22;10194;50.824;7.134;2023-04-08T12:49:19;12.20;99.90
20068;DHT22;10194;50.824;7.134;2023-04-08T12:51:44;12.20;99.90
20068;DHT22;10194;50.824;7.134;2023-04-08T12:54:10;12.30;99.90
20068;DHT22;10194;50.824;7.134;2023-04-08T12:56:36;12.40;99.90
20068;DHT22;10194;50.824;7.134;2023-04-08T12:59:03;12.50;99.90
20068;DHT22;10194;50.824;7.134;2023-04-08T13:01:29;12.60;99.90
20068;DHT22;10194;50.824;7.134;2023-04-08T13:03:55;12.60;99.90
20068;DHT22;10194;50.824;7.134;2023-04-08T13:06:21;12.50;99.90
20068;DHT22;10194;50.824;7.134;2023-04-08T13:08:47;12.50;99.90
20068;DHT22;10194;50.824;7.134;2023-04-08T13:11:14;12.40;99.90
20068;DHT22;10194;50.824;7.134;2023-04-08T13:13:40;12.30;99.90
20068;DHT22;10194;50.824;7.134;2023-04-08T13:16:06;12.50;99.90
20068;DHT22;10194;50.824;7.134;2023-04-08T13:18:32;12.40;99.90
20068;DHT22;10194;50.824;7.134;2023-04-08T13:20:57;12.40;99.90
20068;DHT22;10194;50.824;7.134;2023-04-08T13:23:23;12.30;99.90
20068;DHT22;10194;50.824;7.134;2023-04-08T13:25:50;12.30;99.90
20068;DHT22;10194;50.824;7.134;2023-04-08T13:28:16;12.40;99.90
20068;DHT22;10194;50.824;7.134;2023-04-08T13:30:41;12.50;99.90
20068;DHT22;10194;50.824;7.134;2023-04-08T13:33:07;12.70;99.90
20068;DHT22;10194;50.824;7.134;2023-04-08T13:35:33;12.80;99.90
20068;DHT22;10194;50.824;7.134;2023-04-08T13:37:59;12.60;99.90
20068;DHT22;10194;50.824;7.134;2023-04-08T13:40:25;12.70;99.90
20068;DHT22;10194;50.824;7.134;2023-04-08T13:42:52;12.60;99.90
20068;DHT22;10194;50.824;7.134;2023-04-08T13:45:18;12.60;99.90
20068;DHT22;10194;50.824;7.134;2023-04-08T13:47:44;12.60;99.90
20068;DHT22;10194;50.824;7.134;2023-04-08T13:50:10;12.80;99.90
20068;DHT22;10194;50.824;7.134;2023-04-08T13:52:36;12.70;99.90
20068;DHT22;10194;50.824;7.134;2023-04-08T13:55:02;12.60;99.90
20068;DHT22;10194;50.824;7.134;2023-04-08T13:57:28;12.70;99.90
20068;DHT22;10194;50.824;7.134;2023-04-08T13:59:54;12.70;99.90
20068;DHT22;10194;50.824;7.134;2023-04-08T14:02:19;12.70;99.90
20068;DHT22;10194;50.824;7.134;2023-04-08T14:04:46;12.60;99.90
20068;DHT22;10194;50.824;7.134;2023-04-08T14:07:12;12.40;99.90
20068;DHT22;10194;50.824;7.134;2023-04-08T14:09:38;12.30;99.90
20068;DHT22;10194;50.824;7.134;2023-04-08T14:12:04;12.30;99.90
20068;DHT22;10194;50.824;7.134;2023-04-08T14:14:30;12.30;99.90
20068;DHT22;10194;50.824;7.134;2023-04-08T14:16:56;12.40;99.90
20068;DHT22;10194;50.824;7.134;2023-04-08T14:19:22;12.40;99.90
20068;DHT22;10194;50.824;7.134;2023-04-08T14:21:48;12.60;99.90
20068;DHT22;10194;50.824;7.134;2023-04-08T14:24:14;12.70;99.90
20068;DHT22;10194;50.824;7.134;2023-04-08T14:26:40;12.80;99.90
20068;DHT22;10194;50.824;7.134;2023-04-08T14:29:06;12.90;99.90
20068;DHT22;10194;50.824;7.134;2023-04-08T14:31:33;12.80;99.90
20068;DHT22;10194;50.824;7.134;2023-04-08T14:34:00;12.80;99.90
20068;DHT22;10194;50.824;7.134;2023-04-08T14:36:26;12.60;99.90
20068;DHT22;10194;50.824;7.134;2023-04-08T14:38:53;12.60;99.90
20068;DHT22;10194;50.824;7.134;2023-04-08T14:41:19;12.60;99.90
20068;DHT22;10194;50.824;7.134;2023-04-08T14:43:46;12.70;99.90
20068;DHT22;10194;50.824;7.134;2023-04-08T14:46:12;12.60;99.90
20068;DHT22;10194;50.824;7.134;2023-04-08T14:48:38;12.70;99.90
20068;DHT22;10194;50.824;7.134;2023-04-08T14:51:05;12.60;99.90
20068;DHT22;10194;50.824;7.134;2023-04-08T14:53:31;12.60;99.90
20068;DHT22;10194;50.824;7.134;2023-04-08T14:55:58;12.50;99.90
20068;DHT22;10194;50.824;7.134;2023-04-08T14:58:24;12.70;99.90
20068;DHT22;10194;50.824;7.134;2023-04-08T15:00:50;12.70;99.90
20068;DHT22;10194;50.824;7.134;2023-04-08T15:03:16;12.70;99.90
20068;DHT22;10194;50.824;7.134;2023-04-08T15:05:43;12.70;99.90
20068;DHT22;10194;50.824;7.134;2023-04-08T15:08:12;12.70;99.90
20068;DHT22;10194;50.824;7.134;2023-04-08T15:10:38;12.60;99.90
20068;DHT22;10194;50.824;7.134;2023-04-08T15:13:04;12.50;99.90
20068;DHT22;10194;50.824;7.134;2023-04-08T15:15:30;12.50;99.90
20068;DHT22;10194;50.824;7.134;2023-04-08T15:17:56;12.60;99.90
20068;DHT22;10194;50.824;7.134;2023-04-08T15:20:22;12.60;99.90
20068;DHT22;10194;50.824;7.134;2023-04-08T15:22:48;12.70;99.90
20068;DHT22;10194;50.824;7.134;2023-04-08T15:25:13;12.80;99.90
20068;DHT22;10194;50.824;7.134;2023-04-08T15:27:40;12.90;99.90
20068;DHT22;10194;50.824;7.134;2023-04-08T15:30:07;13.00;99.90
20068;DHT22;10194;50.824;7.134;2023-04-08T15:32:33;13.00;99.90
20068;DHT22;10194;50.824;7.134;2023-04-08T15:34:59;12.80;99.90
20068;DHT22;10194;50.824;7.134;2023-04-08T15:37:25;12.80;99.90
20068;DHT22;10194;50.824;7.134;2023-04-08T15:39:51;12.80;99.90
20068;DHT22;10194;50.824;7.134;2023-04-08T15:42:20;12.80;99.90
20068;DHT22;10194;50.824;7.134;2023-04-08T15:44:46;12.70;99.90
20068;DHT22;10194;50.824;7.134;2023-04-08T15:47:12;12.70;99.90
20068;DHT22;10194;50.824;7.134;2023-04-08T15:49:38;12.60;99.90
20068;DHT22;10194;50.824;7.134;2023-04-08T15:52:04;12.70;99.90
20068;DHT22;10194;50.824;7.134;2023-04-08T15:54:32;12.70;99.90
20068;DHT22;10194;50.824;7.134;2023-04-08T15:56:58;12.70;99.90